Effingham, Illinois
Current Conditions -  °F | °C
As of 12:55 AM on Thursday 23 Oct 2014 (Local Time) from K1H2 Reporting Station
Clear Clear  
Wind Chill: 38°   Ceiling: Unl
Heat Index: 38°   Visibility: 10mi
Dew Point: 35°   Wind: 0mph
Humidity: 90%   Direction: NA
Pressure: 30.25"   Gusts: NA
Location:  39.12°N, 88.54°W
Report Text: K1H2 230555Z AUTO 00000KT 10SM CLR 03/02 A3025 RMK AO2 T00310016 10090 20030 401660030
Loading
Personal Weather Stations






























Interactive Weather Map New forecast layout! Learn more

10-Day Weather Forecast

Advertisements
Track Severe Weather on mobile